Hauptseite
METAR-TAF:

METAR-TAF

Flughäfen :

Brive-la-Gaillarde, Frankreich

Souillac

Breite: 45-02-28N, Länge: 001-28-59E, Höhe: 311 m

Beobachtung

Neuester Wetterbericht von vor 24 Minuten, um 05:30 UTC
Wind 3 kt aus Nord/Nordwest
Temperatur 6°C
Luftfeuchtigkeit 100%
Luftdruck 1023 hPa
Sichtweite 10 km oder mehr
Durchbrochene Bewölkung in der Höhe von 1400 ft

METAR: LFSL 260530Z AUTO 34003KT 9999 BKN014 06/06 Q1023 TEMPO 3000 BR BKN005

Zeit: 07:54 (05:54 UTC)

Prognose

Neuester Wetterbericht von vor 54 Minuten, um 05:00 UTC
Gültige Prognose vom 26 um 06 UTC bis 26 um 15 UTC
Wind 5 kt aus Nordwest
Sichtweite 10 km oder mehr
keine Wolken unter 1500 m und keine Kumulonimbus oder Gewitterwolken
Wahrscheinlichkeit 30% :
Zeitweise
vom 26 um 06 UTC bis 26 um 08 UTC
Sichtweite: 3000 m
Durchbrochene Bewölkung in der Höhe von 500 ft
feuchter Dunst

TAF: LFSL 260500Z 2606/2615 32005KT CAVOK PROB30 TEMPO 2606/2608 3000 BR BKN005

Wetterbeobachtungen und Prognosen von mehr als 4000 Flughäfen (METAR und TAF Bericht).

Die verfügbaren Stationen werden durch gelbe und rote Markierungen auf der Karte dargestellt.

Führen Sie die Maus auf sie, um den Namen der Station zu sehen.

Darauf klicken, um die Beobachtung von Wetterbeobachtungen und Prognosen zu sehen.

Um die Karte zu ändern : klicken Sie auf den grünen Tasten mit einem schwarzen Kreuz Zum Vergrößern, auf den grünen Button mit einem Gedankenstrich zu verkleinern, oder auf die grünen Pfeile für benachbarte Karten.


METAR-TAF: